createdAt,value
2018-05-13T00:01:45.570Z,17.67
2018-05-13T00:04:13.665Z,15.40
2018-05-13T00:06:41.768Z,14.40
2018-05-13T00:09:09.867Z,15.07
2018-05-13T00:11:37.987Z,17.07
2018-05-13T00:14:06.856Z,18.60
2018-05-13T00:16:34.975Z,16.80
2018-05-13T00:19:03.856Z,19.57
2018-05-13T00:21:31.969Z,18.37
2018-05-13T00:24:00.863Z,18.77
2018-05-13T00:26:29.749Z,17.13
2018-05-13T00:28:57.887Z,17.63
2018-05-13T00:31:25.998Z,18.40
2018-05-13T00:33:54.104Z,21.77
2018-05-13T00:36:22.217Z,25.77
2018-05-13T00:38:51.095Z,21.13
2018-05-13T00:41:19.986Z,20.37
2018-05-13T00:43:48.133Z,19.30
2018-05-13T00:46:16.255Z,20.00
2018-05-13T00:48:44.388Z,21.33
2018-05-13T00:51:12.493Z,19.17
2018-05-13T00:53:40.627Z,20.33
2018-05-13T00:56:09.514Z,18.30
2018-05-13T00:58:37.602Z,19.53
2018-05-13T01:01:05.703Z,22.37
2018-05-13T01:03:33.803Z,21.47
2018-05-13T01:06:02.674Z,23.03
2018-05-13T01:08:32.308Z,22.53
2018-05-13T01:11:00.409Z,18.90
2018-05-13T01:13:29.280Z,20.70
2018-05-13T01:15:57.428Z,20.87
2018-05-13T01:18:25.589Z,21.30
2018-05-13T01:20:54.470Z,19.23
2018-05-13T01:23:22.590Z,21.23
2018-05-13T01:25:50.704Z,22.07
2018-05-13T01:28:18.817Z,20.60
2018-05-13T01:30:46.957Z,21.93
2018-05-13T01:33:15.055Z,21.93
2018-05-13T01:35:43.212Z,20.47
2018-05-13T01:38:11.327Z,21.87
2018-05-13T01:40:39.462Z,18.73
2018-05-13T01:43:07.585Z,21.20
2018-05-13T01:45:35.699Z,17.73
2018-05-13T01:48:03.773Z,14.63
2018-05-13T01:50:31.856Z,13.93
2018-05-13T01:53:00.036Z,11.63
2018-05-13T01:55:33.937Z,13.10
2018-05-13T01:58:02.009Z,11.23
2018-05-13T02:00:30.884Z,12.40
2018-05-13T02:02:59.047Z,11.23
2018-05-13T02:05:27.175Z,13.23
2018-05-13T02:07:56.054Z,11.77
2018-05-13T02:10:24.223Z,11.63
2018-05-13T02:12:52.353Z,12.27
2018-05-13T02:15:21.231Z,11.20
2018-05-13T02:17:49.355Z,11.40
2018-05-13T02:20:17.498Z,11.87
2018-05-13T02:22:47.178Z,12.30
2018-05-13T02:25:15.304Z,12.80
2018-05-13T02:27:43.451Z,13.27
2018-05-13T02:30:11.560Z,13.07
2018-05-13T02:32:39.690Z,12.57
2018-05-13T02:35:08.560Z,14.00
2018-05-13T02:37:36.658Z,13.47
2018-05-13T02:40:04.802Z,12.50
2018-05-13T02:42:32.902Z,13.30
2018-05-13T02:45:01.000Z,13.53
2018-05-13T02:47:29.137Z,14.40
2018-05-13T02:49:57.248Z,15.23
2018-05-13T02:52:25.411Z,16.13
2018-05-13T02:54:53.510Z,14.30
2018-05-13T02:57:21.609Z,13.10
2018-05-13T02:59:49.723Z,13.57
2018-05-13T03:02:17.895Z,13.87
2018-05-13T03:04:46.026Z,13.40
2018-05-13T03:07:14.127Z,13.10
2018-05-13T03:09:42.244Z,16.87
2018-05-13T03:12:10.377Z,13.93
2018-05-13T03:14:38.485Z,11.83
2018-05-13T03:17:06.614Z,13.07
2018-05-13T03:19:34.729Z,12.90
2018-05-13T03:22:02.860Z,13.10
2018-05-13T03:24:30.978Z,11.77
2018-05-13T03:26:59.080Z,11.40
2018-05-13T03:29:27.961Z,12.27
2018-05-13T03:31:56.147Z,11.30
2018-05-13T03:34:24.295Z,11.17
2018-05-13T03:36:52.388Z,11.57
2018-05-13T03:39:20.513Z,12.43
2018-05-13T03:41:48.682Z,11.87
2018-05-13T03:44:16.799Z,12.40
2018-05-13T03:46:45.695Z,10.43
2018-05-13T03:49:14.582Z,10.73
2018-05-13T03:51:42.733Z,10.70
2018-05-13T03:54:10.837Z,10.07
2018-05-13T03:56:38.951Z,11.93
2018-05-13T03:59:07.099Z,10.90
2018-05-13T04:01:35.224Z,12.67
2018-05-13T04:04:04.101Z,10.23
2018-05-13T04:06:32.202Z,10.53
2018-05-13T04:09:12.267Z,9.53
2018-05-13T04:11:52.252Z,11.10
2018-05-13T04:14:33.082Z,9.93
2018-05-13T04:17:01.975Z,7.23
2018-05-13T04:19:30.098Z,8.30
2018-05-13T04:21:58.252Z,7.60
2018-05-13T04:24:26.330Z,6.77
2018-05-13T04:26:54.378Z,6.97
2018-05-13T04:29:23.294Z,6.27
2018-05-13T04:31:51.399Z,6.67
2018-05-13T04:34:19.491Z,5.87
2018-05-13T04:36:47.636Z,6.43
2018-05-13T04:39:16.505Z,6.07
2018-05-13T04:41:44.729Z,6.03
2018-05-13T04:44:13.608Z,6.20
2018-05-13T04:46:41.699Z,5.90
2018-05-13T04:49:09.829Z,5.57
2018-05-13T04:51:37.933Z,5.60
2018-05-13T04:54:06.047Z,5.83
2018-05-13T04:56:34.171Z,5.70
2018-05-13T04:59:03.041Z,5.60
2018-05-13T05:01:31.166Z,5.27
2018-05-13T05:03:59.241Z,5.77
2018-05-13T05:06:27.333Z,6.47
2018-05-13T05:08:55.500Z,6.17
2018-05-13T05:11:23.631Z,5.50
2018-05-13T05:13:51.716Z,6.33
2018-05-13T05:16:19.786Z,6.07
2018-05-13T05:18:47.890Z,5.83
2018-05-13T05:21:16.045Z,5.83
2018-05-13T05:23:44.149Z,6.37
2018-05-13T05:26:12.224Z,6.20
2018-05-13T05:28:40.339Z,5.70
2018-05-13T05:31:08.499Z,6.00
2018-05-13T05:33:36.655Z,6.03
2018-05-13T05:36:05.513Z,5.70
2018-05-13T05:38:33.610Z,5.43
2018-05-13T05:41:01.711Z,5.97
2018-05-13T05:43:29.805Z,5.77
2018-05-13T05:45:58.681Z,6.07
2018-05-13T05:48:26.811Z,5.93
2018-05-13T05:50:56.447Z,5.23
2018-05-13T05:53:24.531Z,5.03
2018-05-13T05:55:52.606Z,4.87
2018-05-13T05:58:20.724Z,5.10
2018-05-13T06:00:48.917Z,5.43
2018-05-13T06:03:17.015Z,4.70
2018-05-13T06:05:45.123Z,4.33
2018-05-13T06:08:13.209Z,4.90
2018-05-13T06:10:42.121Z,4.70
2018-05-13T06:13:10.982Z,5.07
2018-05-13T06:15:39.076Z,5.07
2018-05-13T06:18:07.171Z,5.47
2018-05-13T06:20:35.336Z,4.63
2018-05-13T06:23:03.372Z,5.30
2018-05-13T06:25:32.228Z,4.70
2018-05-13T06:28:00.323Z,5.50
2018-05-13T06:30:28.462Z,5.53
2018-05-13T06:32:56.569Z,5.47
2018-05-13T06:35:24.642Z,5.80
2018-05-13T06:37:52.720Z,6.10
2018-05-13T06:40:20.820Z,6.13
2018-05-13T06:42:49.029Z,7.07
2018-05-13T06:45:17.120Z,5.53
2018-05-13T06:47:45.259Z,5.90
2018-05-13T06:50:13.364Z,5.27
2018-05-13T06:52:41.497Z,5.63
2018-05-13T06:55:10.396Z,5.00
2018-05-13T06:57:39.231Z,5.07
2018-05-13T07:00:07.315Z,5.53
2018-05-13T07:02:35.437Z,6.07
2018-05-13T07:05:03.544Z,5.93
2018-05-13T07:07:31.645Z,5.73
2018-05-13T07:10:00.539Z,6.20
2018-05-13T07:12:29.407Z,5.00
2018-05-13T07:14:57.544Z,5.70
2018-05-13T07:17:26.424Z,5.93
2018-05-13T07:19:55.258Z,6.13
2018-05-13T07:22:23.363Z,6.00
2018-05-13T07:24:51.463Z,5.63
2018-05-13T07:27:19.570Z,6.20
2018-05-13T07:29:47.647Z,6.03
2018-05-13T07:32:15.749Z,5.87
2018-05-13T07:34:43.843Z,6.13
2018-05-13T07:37:12.733Z,6.87
2018-05-13T07:39:41.634Z,5.77
2018-05-13T07:42:09.740Z,6.20
2018-05-13T07:44:38.584Z,6.53
2018-05-13T07:47:06.766Z,6.23
2018-05-13T07:49:34.875Z,5.73
2018-05-13T07:52:03.007Z,6.20
2018-05-13T07:54:31.892Z,9.37
2018-05-13T07:57:00.759Z,6.23
2018-05-13T07:59:28.889Z,6.50
2018-05-13T08:01:57.722Z,6.10
2018-05-13T08:04:25.821Z,6.37
2018-05-13T08:06:53.920Z,5.83
2018-05-13T08:09:22.055Z,6.50
2018-05-13T08:11:50.927Z,5.93
2018-05-13T08:14:19.021Z,6.03
2018-05-13T08:16:47.139Z,5.30
2018-05-13T08:19:15.283Z,5.33
2018-05-13T08:21:43.369Z,4.97
2018-05-13T08:24:11.475Z,4.93
2018-05-13T08:26:40.341Z,4.40
2018-05-13T08:29:08.424Z,5.00
2018-05-13T08:31:37.118Z,5.10
2018-05-13T08:34:05.288Z,5.70
2018-05-13T08:36:33.475Z,5.10
2018-05-13T08:39:03.129Z,4.77
2018-05-13T08:41:33.606Z,5.03
2018-05-13T08:44:02.498Z,4.37
2018-05-13T08:46:31.362Z,4.77
2018-05-13T08:48:59.448Z,5.57
2018-05-13T08:51:27.520Z,5.03
2018-05-13T08:53:55.634Z,5.07
2018-05-13T08:56:23.744Z,4.97
2018-05-13T08:58:52.595Z,4.80
2018-05-13T09:01:20.652Z,4.70
2018-05-13T09:03:48.746Z,5.10
2018-05-13T09:06:16.872Z,5.23
2018-05-13T09:08:45.005Z,5.10
2018-05-13T09:11:13.853Z,4.20
2018-05-13T09:13:41.947Z,4.00
2018-05-13T09:16:10.028Z,4.60
2018-05-13T09:18:38.111Z,4.27
2018-05-13T09:21:06.213Z,4.27
2018-05-13T09:23:34.645Z,5.27
2018-05-13T09:26:02.727Z,4.80
2018-05-13T09:28:30.807Z,5.90
2018-05-13T09:30:58.922Z,5.20
2018-05-13T09:33:27.021Z,5.27
2018-05-13T09:35:55.101Z,5.83
2018-05-13T09:38:23.173Z,5.60
2018-05-13T09:40:51.275Z,6.30
2018-05-13T09:43:19.425Z,6.17
2018-05-13T09:45:48.280Z,9.07
2018-05-13T09:48:16.400Z,6.90
2018-05-13T09:50:44.555Z,7.23
2018-05-13T09:53:12.659Z,8.63
2018-05-13T09:55:41.545Z,8.60
2018-05-13T09:58:09.651Z,8.33
2018-05-13T10:00:38.535Z,8.60
2018-05-13T10:03:07.394Z,9.10
2018-05-13T10:05:35.514Z,8.20
2018-05-13T10:08:03.605Z,8.83
2018-05-13T10:10:31.710Z,8.43
2018-05-13T10:13:00.570Z,8.60
2018-05-13T10:15:28.657Z,8.03
2018-05-13T10:17:56.730Z,9.03
2018-05-13T10:20:24.851Z,9.70
2018-05-13T10:22:53.755Z,9.37
2018-05-13T10:25:21.837Z,9.00
2018-05-13T10:27:49.915Z,8.43
2018-05-13T10:30:18.033Z,7.47
2018-05-13T10:32:46.126Z,9.10
2018-05-13T10:35:14.216Z,8.47
2018-05-13T10:37:42.346Z,9.30
2018-05-13T10:40:11.931Z,8.70
2018-05-13T10:42:40.092Z,9.63
2018-05-13T10:45:08.921Z,9.47
2018-05-13T10:47:37.031Z,9.67
2018-05-13T10:50:05.136Z,10.00
2018-05-13T10:52:33.234Z,10.57
2018-05-13T10:55:01.338Z,10.33
2018-05-13T10:57:29.459Z,11.17
2018-05-13T10:59:57.549Z,11.60
2018-05-13T11:02:25.653Z,10.90
2018-05-13T11:04:53.798Z,10.67
2018-05-13T11:07:22.670Z,12.40
2018-05-13T11:09:51.523Z,12.23
2018-05-13T11:12:19.657Z,12.83
2018-05-13T11:14:47.801Z,13.10
2018-05-13T11:17:15.899Z,13.43
2018-05-13T11:19:44.004Z,12.73
2018-05-13T11:22:12.921Z,11.90
2018-05-13T11:24:41.793Z,12.13
2018-05-13T11:27:09.977Z,11.60
2018-05-13T11:29:38.053Z,11.53
2018-05-13T11:32:06.151Z,11.90
2018-05-13T11:34:34.246Z,12.17
2018-05-13T11:37:03.124Z,11.27
2018-05-13T11:39:32.026Z,11.60
2018-05-13T11:42:00.078Z,9.60
2018-05-13T11:44:28.147Z,9.83
2018-05-13T11:46:56.288Z,11.37
2018-05-13T11:49:24.395Z,11.00
2018-05-13T11:51:52.486Z,11.40
2018-05-13T11:54:21.352Z,10.30
2018-05-13T11:56:49.467Z,10.47
2018-05-13T11:59:18.343Z,9.63
2018-05-13T12:01:46.451Z,9.40
2018-05-13T12:04:15.338Z,9.87
2018-05-13T12:06:43.453Z,9.57
2018-05-13T12:09:12.341Z,9.00
2018-05-13T12:11:40.448Z,8.10
2018-05-13T12:14:09.327Z,8.57
2018-05-13T12:16:37.432Z,8.77
2018-05-13T12:19:06.315Z,7.87
2018-05-13T12:21:34.403Z,9.23
2018-05-13T12:24:03.276Z,9.47
2018-05-13T12:26:31.363Z,8.63
2018-05-13T12:28:59.522Z,8.57
2018-05-13T12:31:28.304Z,8.03
2018-05-13T12:33:56.407Z,9.33
2018-05-13T12:36:24.471Z,8.83
2018-05-13T12:38:52.593Z,8.63
2018-05-13T12:41:20.692Z,8.20
2018-05-13T12:43:48.794Z,9.20
2018-05-13T12:46:16.906Z,8.53
2018-05-13T12:48:45.764Z,7.50
2018-05-13T12:51:13.868Z,9.20
2018-05-13T12:53:41.998Z,9.60
2018-05-13T12:56:10.116Z,9.70
2018-05-13T12:58:38.173Z,9.40
2018-05-13T13:01:06.276Z,9.90
2018-05-13T13:03:34.385Z,9.00
2018-05-13T13:06:02.501Z,10.50
2018-05-13T13:08:31.385Z,8.77
2018-05-13T13:10:59.476Z,9.73
2018-05-13T13:13:28.350Z,9.57
2018-05-13T13:15:56.419Z,8.60
2018-05-13T13:18:24.558Z,9.90
2018-05-13T13:20:52.657Z,9.60
2018-05-13T13:23:20.811Z,9.50
2018-05-13T13:25:48.993Z,10.90
2018-05-13T13:28:17.783Z,9.93
2018-05-13T13:30:45.996Z,11.20
2018-05-13T13:33:14.768Z,10.20
2018-05-13T13:35:42.935Z,8.63
2018-05-13T13:38:11.003Z,9.33
2018-05-13T13:40:39.164Z,9.57
2018-05-13T13:43:07.261Z,11.03
2018-05-13T13:45:35.393Z,9.77
2018-05-13T13:48:03.501Z,9.03
2018-05-13T13:50:31.655Z,9.83
2018-05-13T13:52:59.740Z,9.63
2018-05-13T13:55:27.846Z,8.87
2018-05-13T13:57:55.965Z,12.77
2018-05-13T14:00:24.081Z,10.53
2018-05-13T14:02:52.178Z,9.33
2018-05-13T14:05:20.280Z,9.33
2018-05-13T14:07:48.404Z,10.00
2018-05-13T14:10:16.547Z,9.10
2018-05-13T14:12:44.636Z,9.73
2018-05-13T14:15:12.747Z,8.70
2018-05-13T14:17:40.831Z,9.23
2018-05-13T14:20:09.778Z,9.00
2018-05-13T14:22:37.801Z,8.73
2018-05-13T14:25:06.655Z,8.57
2018-05-13T14:27:34.744Z,9.73
2018-05-13T14:30:02.849Z,9.33
2018-05-13T14:32:30.958Z,8.30
2018-05-13T14:34:59.052Z,8.80
2018-05-13T14:37:27.144Z,8.77
2018-05-13T14:39:56.002Z,9.60
2018-05-13T14:42:24.151Z,8.87
2018-05-13T14:44:52.242Z,8.57
2018-05-13T14:47:20.400Z,8.30
2018-05-13T14:49:48.517Z,8.57
2018-05-13T14:52:16.596Z,9.60
2018-05-13T14:54:44.688Z,8.70
2018-05-13T14:57:12.793Z,8.60
2018-05-13T14:59:40.929Z,8.47
2018-05-13T15:02:09.809Z,9.70
2018-05-13T15:04:37.890Z,9.27
2018-05-13T15:07:05.986Z,9.63
2018-05-13T15:09:34.089Z,8.97
2018-05-13T15:12:02.957Z,8.77
2018-05-13T15:14:31.046Z,8.53
2018-05-13T15:16:59.152Z,8.33
2018-05-13T15:19:28.004Z,8.20
2018-05-13T15:21:56.123Z,8.53
2018-05-13T15:24:24.227Z,8.60
2018-05-13T15:26:53.108Z,8.60
2018-05-13T15:29:21.206Z,9.07
2018-05-13T15:31:49.339Z,9.63
2018-05-13T15:34:17.451Z,8.03
2018-05-13T15:36:45.571Z,8.00
2018-05-13T15:39:14.401Z,8.47
2018-05-13T15:41:42.468Z,8.27
2018-05-13T15:44:11.312Z,9.03
2018-05-13T15:46:39.428Z,7.83
2018-05-13T15:49:07.541Z,8.73
2018-05-13T15:51:35.998Z,8.60
2018-05-13T15:54:04.088Z,7.80
2018-05-13T15:56:32.235Z,7.23
2018-05-13T15:59:00.432Z,7.10
2018-05-13T16:01:28.508Z,7.97
2018-05-13T16:03:56.586Z,7.60
2018-05-13T16:06:24.725Z,7.57
2018-05-13T16:08:52.807Z,7.13
2018-05-13T16:11:20.897Z,7.90
2018-05-13T16:13:49.153Z,7.20
2018-05-13T16:16:17.263Z,7.40
2018-05-13T16:18:45.452Z,7.90
2018-05-13T16:21:14.187Z,8.43
2018-05-13T16:23:42.295Z,7.63
2018-05-13T16:26:10.484Z,7.70
2018-05-13T16:28:38.566Z,8.20
2018-05-13T16:31:06.648Z,8.57
2018-05-13T16:33:34.789Z,7.57
2018-05-13T16:36:02.875Z,7.80
2018-05-13T16:38:31.774Z,8.50
2018-05-13T16:41:00.610Z,7.53
2018-05-13T16:43:28.732Z,8.43
2018-05-13T16:45:56.845Z,8.13
2018-05-13T16:48:24.995Z,7.53
2018-05-13T16:50:53.104Z,7.70
2018-05-13T16:53:21.204Z,8.10
2018-05-13T16:55:49.304Z,9.20
2018-05-13T16:58:18.175Z,7.10
2018-05-13T17:00:46.259Z,8.43
2018-05-13T17:03:14.351Z,7.93
2018-05-13T17:05:43.951Z,8.97
2018-05-13T17:08:12.052Z,8.20
2018-05-13T17:10:40.144Z,9.10
2018-05-13T17:13:08.244Z,8.37
2018-05-13T17:15:37.079Z,8.37
2018-05-13T17:18:05.170Z,8.90
2018-05-13T17:20:33.271Z,7.63
2018-05-13T17:23:01.419Z,8.37
2018-05-13T17:25:30.287Z,8.37
2018-05-13T17:27:58.402Z,8.87
2018-05-13T17:30:26.495Z,9.03
2018-05-13T17:32:54.584Z,8.93
2018-05-13T17:35:22.699Z,8.90
2018-05-13T17:37:50.800Z,8.17
2018-05-13T17:40:18.902Z,9.00
2018-05-13T17:42:46.990Z,9.10
2018-05-13T17:45:15.064Z,8.13
2018-05-13T17:47:43.187Z,8.77
2018-05-13T17:50:11.236Z,8.77
2018-05-13T17:52:39.339Z,8.37
2018-05-13T17:55:08.196Z,8.67
2018-05-13T17:57:36.388Z,7.77
2018-05-13T18:00:05.223Z,8.40
2018-05-13T18:02:34.076Z,8.47
2018-05-13T18:05:02.220Z,8.40
2018-05-13T18:07:31.095Z,8.13
2018-05-13T18:09:59.233Z,8.57
2018-05-13T18:12:27.333Z,8.40
2018-05-13T18:14:55.437Z,8.00
2018-05-13T18:17:23.563Z,8.23
2018-05-13T18:19:51.675Z,8.60
2018-05-13T18:22:19.760Z,9.37
2018-05-13T18:24:47.946Z,8.47
2018-05-13T18:27:15.945Z,8.97
2018-05-13T18:29:44.043Z,8.20
2018-05-13T18:32:12.148Z,8.93
2018-05-13T18:34:40.243Z,9.07
2018-05-13T18:37:09.117Z,8.70
2018-05-13T18:39:37.224Z,8.97
2018-05-13T18:42:06.152Z,8.80
2018-05-13T18:44:35.022Z,8.27
2018-05-13T18:47:03.100Z,8.07
2018-05-13T18:49:31.195Z,8.20
2018-05-13T18:51:59.301Z,9.03
2018-05-13T18:54:28.913Z,8.53
2018-05-13T18:56:57.000Z,8.00
2018-05-13T18:59:25.872Z,8.53
2018-05-13T19:01:53.953Z,7.60
2018-05-13T19:04:22.069Z,7.97
2018-05-13T19:06:50.958Z,8.23
2018-05-13T19:09:19.059Z,8.57
2018-05-13T19:11:47.909Z,8.50
2018-05-13T19:14:16.039Z,8.53
2018-05-13T19:16:44.158Z,9.20
2018-05-13T19:19:12.232Z,9.77
2018-05-13T19:21:40.380Z,9.63
2018-05-13T19:24:08.527Z,10.13
2018-05-13T19:26:36.666Z,11.63
2018-05-13T19:29:04.758Z,11.47
2018-05-13T19:31:33.772Z,10.30
2018-05-13T19:34:01.929Z,11.00
2018-05-13T19:36:30.087Z,12.00
2018-05-13T19:38:58.219Z,10.50
2018-05-13T19:41:26.352Z,12.30
2018-05-13T19:43:54.462Z,13.13
2018-05-13T19:46:22.570Z,12.43
2018-05-13T19:48:51.542Z,13.07
2018-05-13T19:51:19.686Z,12.70
2018-05-13T19:53:47.775Z,13.27
2018-05-13T19:56:15.924Z,11.80
2018-05-13T19:58:44.105Z,11.57
2018-05-13T20:01:12.195Z,12.67
2018-05-13T20:03:40.342Z,12.87
2018-05-13T20:06:09.150Z,12.53
2018-05-13T20:08:37.241Z,13.30
2018-05-13T20:11:05.350Z,11.90
2018-05-13T20:13:34.237Z,13.23
2018-05-13T20:16:04.120Z,11.97
2018-05-13T20:18:32.249Z,12.90
2018-05-13T20:21:00.638Z,11.93
2018-05-13T20:23:28.834Z,12.33
2018-05-13T20:25:56.932Z,14.07
2018-05-13T20:28:25.132Z,13.27
2018-05-13T20:30:53.227Z,16.43
2018-05-13T20:33:21.375Z,13.13
2018-05-13T20:35:49.547Z,12.57
2018-05-13T20:38:17.639Z,12.67
2018-05-13T20:40:45.744Z,12.60
2018-05-13T20:43:13.875Z,12.63
2018-05-13T20:45:41.984Z,11.27
2018-05-13T20:48:10.110Z,14.97
2018-05-13T20:50:38.971Z,12.57
2018-05-13T20:53:07.086Z,14.63
2018-05-13T20:55:35.224Z,16.77
2018-05-13T20:58:03.345Z,14.53
2018-05-13T21:00:31.447Z,13.87
2018-05-13T21:02:59.547Z,15.77
2018-05-13T21:05:28.399Z,16.10
2018-05-13T21:07:56.479Z,16.07
2018-05-13T21:10:24.571Z,16.40
2018-05-13T21:12:52.792Z,17.90
2018-05-13T21:15:20.909Z,14.30
2018-05-13T21:17:49.007Z,13.57
2018-05-13T21:20:17.079Z,11.83
2018-05-13T21:22:45.159Z,15.57
2018-05-13T21:25:13.255Z,14.60
2018-05-13T21:27:41.331Z,11.93
2018-05-13T21:30:09.486Z,9.90
2018-05-13T21:32:37.591Z,12.73
2018-05-13T21:35:05.702Z,10.53
2018-05-13T21:37:33.793Z,13.90
2018-05-13T21:40:01.885Z,11.70
2018-05-13T21:42:29.988Z,12.37
2018-05-13T21:44:58.091Z,12.57
2018-05-13T21:47:26.221Z,13.00
2018-05-13T21:49:54.303Z,13.83
2018-05-13T21:52:22.406Z,12.40
2018-05-13T21:54:50.538Z,12.97
2018-05-13T21:57:19.412Z,12.03
2018-05-13T21:59:47.531Z,12.10
2018-05-13T22:02:15.657Z,12.60
2018-05-13T22:04:55.728Z,11.60
2018-05-13T22:07:23.826Z,11.00
2018-05-13T22:09:51.941Z,10.87
2018-05-13T22:12:20.050Z,10.83
2018-05-13T22:14:48.144Z,11.07
2018-05-13T22:17:16.225Z,9.67
2018-05-13T22:19:44.373Z,11.43
2018-05-13T22:22:12.501Z,12.07
2018-05-13T22:24:40.608Z,12.37
2018-05-13T22:27:08.727Z,14.80
2018-05-13T22:29:36.839Z,11.23
2018-05-13T22:32:05.707Z,13.83
2018-05-13T22:34:33.816Z,14.87
2018-05-13T22:37:02.688Z,13.77
2018-05-13T22:39:30.780Z,12.60
2018-05-13T22:41:58.891Z,12.40
2018-05-13T22:44:27.792Z,14.57
2018-05-13T22:46:56.671Z,12.60
2018-05-13T22:49:24.779Z,13.37
2018-05-13T22:51:52.909Z,12.87
2018-05-13T22:54:21.007Z,14.27
2018-05-13T22:56:49.100Z,15.83
2018-05-13T22:59:17.215Z,13.33
2018-05-13T23:01:45.315Z,15.37
2018-05-13T23:04:14.192Z,16.40
2018-05-13T23:06:42.319Z,17.40
2018-05-13T23:09:11.205Z,13.00
2018-05-13T23:11:39.300Z,13.00
2018-05-13T23:14:08.170Z,14.23
2018-05-13T23:16:36.273Z,14.00
2018-05-13T23:19:05.136Z,17.57
2018-05-13T23:21:33.227Z,16.40
2018-05-13T23:24:01.329Z,14.53
2018-05-13T23:26:29.482Z,17.17
2018-05-13T23:28:57.596Z,16.67
2018-05-13T23:31:25.698Z,19.23
2018-05-13T23:33:54.554Z,21.03
2018-05-13T23:36:22.822Z,22.70
2018-05-13T23:38:50.894Z,18.03
2018-05-13T23:41:19.059Z,19.70
2018-05-13T23:43:47.140Z,20.40
2018-05-13T23:46:15.232Z,21.23
2018-05-13T23:48:44.092Z,22.17
2018-05-13T23:51:12.199Z,19.87
2018-05-13T23:53:41.124Z,22.07
2018-05-13T23:56:09.276Z,21.40
2018-05-13T23:58:37.451Z,24.33
